createdAt,value
2019-03-12T00:00:46.370Z,4.70
2019-03-12T00:03:21.986Z,4.00
2019-03-12T00:05:55.861Z,4.50
2019-03-12T00:08:29.767Z,4.17
2019-03-12T00:11:05.459Z,4.30
2019-03-12T00:13:41.176Z,4.67
2019-03-12T00:16:15.059Z,4.00
2019-03-12T00:18:48.909Z,4.93
2019-03-12T00:21:22.987Z,4.33
2019-03-12T00:23:58.569Z,4.30
2019-03-12T00:26:32.442Z,4.43
2019-03-12T00:29:07.750Z,5.53
2019-03-12T00:31:41.762Z,5.10
2019-03-12T00:34:15.879Z,5.20
2019-03-12T00:36:49.936Z,5.30
2019-03-12T00:39:23.753Z,5.20
2019-03-12T00:41:58.833Z,6.40
2019-03-12T00:44:34.471Z,6.87
2019-03-12T00:47:08.100Z,6.90
2019-03-12T00:49:41.829Z,6.10
2019-03-12T00:52:15.489Z,8.20
2019-03-12T00:54:50.942Z,6.67
2019-03-12T00:57:24.664Z,8.63
2019-03-12T00:59:58.436Z,7.10
2019-03-12T01:02:32.369Z,6.63
2019-03-12T01:05:06.416Z,6.77
2019-03-12T01:07:41.307Z,7.20
2019-03-12T01:10:15.994Z,6.60
2019-03-12T01:12:49.865Z,7.13
2019-03-12T01:15:23.693Z,5.67
2019-03-12T01:17:58.791Z,6.10
2019-03-12T01:20:32.813Z,5.60
2019-03-12T01:23:06.547Z,5.83
2019-03-12T01:25:40.923Z,6.10
2019-03-12T01:28:15.249Z,4.60
2019-03-12T01:30:52.327Z,5.07
2019-03-12T01:33:30.020Z,6.33
2019-03-12T01:36:04.405Z,5.70
2019-03-12T01:38:38.155Z,5.87
2019-03-12T01:41:11.845Z,5.10
2019-03-12T01:43:46.115Z,4.27
2019-03-12T01:46:21.204Z,4.57
2019-03-12T01:48:56.756Z,5.63
2019-03-12T01:51:31.274Z,5.50
2019-03-12T01:54:07.224Z,5.60
2019-03-12T01:56:42.024Z,6.20
2019-03-12T01:59:15.944Z,5.17
2019-03-12T02:01:51.238Z,5.10
2019-03-12T02:04:25.025Z,4.97
2019-03-12T02:06:58.851Z,4.63
2019-03-12T02:09:32.892Z,5.20
2019-03-12T02:12:07.072Z,4.70
2019-03-12T02:14:41.899Z,5.73
2019-03-12T02:17:15.916Z,6.13
2019-03-12T02:19:50.678Z,6.00
2019-03-12T02:22:24.440Z,7.47
2019-03-12T02:24:59.292Z,6.50
2019-03-12T02:27:33.093Z,7.47
2019-03-12T02:30:09.481Z,6.27
2019-03-12T02:32:45.068Z,7.40
2019-03-12T02:35:20.170Z,6.33
2019-03-12T02:37:56.811Z,6.50
2019-03-12T02:40:31.659Z,6.63
2019-03-12T02:43:05.455Z,7.70
2019-03-12T02:45:39.379Z,8.70
2019-03-12T02:48:13.302Z,7.47
2019-03-12T02:50:47.405Z,8.93
2019-03-12T02:53:21.177Z,7.50
2019-03-12T02:55:54.939Z,8.00
2019-03-12T02:58:28.712Z,7.77
2019-03-12T03:01:02.635Z,7.40
2019-03-12T03:03:37.130Z,7.30
2019-03-12T03:06:35.712Z,7.87
2019-03-12T03:09:09.852Z,7.00
2019-03-12T03:11:44.478Z,6.90
2019-03-12T03:14:41.204Z,7.30
2019-03-12T03:17:18.170Z,8.10
2019-03-12T03:19:52.367Z,7.10
2019-03-12T03:22:26.026Z,6.27
2019-03-12T03:24:59.767Z,7.00
2019-03-12T03:27:33.442Z,7.10
2019-03-12T03:30:11.000Z,7.30
2019-03-12T03:32:47.356Z,6.20
2019-03-12T03:35:23.356Z,6.83
2019-03-12T03:37:57.165Z,6.60
2019-03-12T03:40:32.266Z,7.87
2019-03-12T03:43:06.050Z,6.80
2019-03-12T03:45:39.877Z,6.60
2019-03-12T03:48:13.582Z,6.83
2019-03-12T03:50:47.286Z,5.20
2019-03-12T03:53:20.977Z,4.87
2019-03-12T03:55:55.163Z,4.63
2019-03-12T03:58:30.179Z,4.80
2019-03-12T04:01:04.186Z,4.80
2019-03-12T04:03:37.966Z,4.73
2019-03-12T04:06:11.972Z,4.97
2019-03-12T04:08:46.931Z,4.23
2019-03-12T04:11:22.612Z,5.33
2019-03-12T04:13:57.492Z,4.57
2019-03-12T04:16:31.389Z,4.60
2019-03-12T04:19:06.553Z,4.73
2019-03-12T04:21:40.343Z,5.07
2019-03-12T04:24:14.012Z,5.07
2019-03-12T04:26:51.889Z,5.83
2019-03-12T04:29:25.647Z,8.43
2019-03-12T04:31:59.341Z,9.53
2019-03-12T04:34:40.630Z,15.03
2019-03-12T04:37:14.540Z,16.83
2019-03-12T04:39:50.233Z,20.30
2019-03-12T04:42:26.571Z,18.40
2019-03-12T04:45:00.430Z,16.73
2019-03-12T04:47:34.308Z,12.10
2019-03-12T04:50:09.877Z,8.83
2019-03-12T04:52:43.848Z,6.83
2019-03-12T04:55:18.676Z,6.27
2019-03-12T04:57:53.513Z,5.33
2019-03-12T05:00:27.443Z,6.50
2019-03-12T05:03:01.411Z,4.20
2019-03-12T05:05:35.341Z,5.90
2019-03-12T05:08:09.141Z,5.10
2019-03-12T05:10:42.962Z,4.40
2019-03-12T05:13:17.759Z,4.30
2019-03-12T05:15:51.494Z,4.57
2019-03-12T05:18:25.507Z,5.00
2019-03-12T05:20:59.606Z,5.23
2019-03-12T05:23:34.475Z,5.40
2019-03-12T05:26:08.369Z,5.50
2019-03-12T05:28:43.718Z,5.07
2019-03-12T05:31:17.608Z,4.83
2019-03-12T05:33:51.282Z,4.40
2019-03-12T05:36:25.769Z,4.30
2019-03-12T05:38:59.498Z,4.57
2019-03-12T05:41:33.225Z,4.27
2019-03-12T05:44:07.719Z,5.37
2019-03-12T05:46:41.804Z,5.57
2019-03-12T05:49:17.451Z,4.33
2019-03-12T05:51:52.990Z,5.23
2019-03-12T05:54:26.699Z,5.43
2019-03-12T05:57:00.312Z,4.63
2019-03-12T05:59:33.877Z,4.40
2019-03-12T06:02:07.583Z,5.37
2019-03-12T06:04:41.158Z,4.50
2019-03-12T06:07:15.311Z,4.30
2019-03-12T06:09:48.979Z,3.77
2019-03-12T06:12:23.824Z,3.67
2019-03-12T06:14:57.712Z,3.67
2019-03-12T06:17:31.572Z,3.40
2019-03-12T06:20:05.955Z,3.60
2019-03-12T06:22:41.772Z,3.43
2019-03-12T06:25:16.084Z,2.63
2019-03-12T06:27:49.871Z,3.60
2019-03-12T06:30:25.826Z,3.33
2019-03-12T06:33:05.902Z,3.87
2019-03-12T06:35:59.095Z,3.70
2019-03-12T06:38:45.127Z,4.33
2019-03-12T06:41:27.232Z,3.63
2019-03-12T06:44:13.518Z,3.60
2019-03-12T06:47:02.984Z,4.20
2019-03-12T06:49:54.082Z,4.20
2019-03-12T06:52:55.934Z,3.97
2019-03-12T06:55:54.811Z,5.20
2019-03-12T06:58:52.258Z,4.90
2019-03-12T07:01:48.894Z,5.20
2019-03-12T07:04:39.279Z,5.13
2019-03-12T07:07:41.599Z,6.00
2019-03-12T07:10:23.118Z,6.50
2019-03-12T07:13:21.652Z,5.93
2019-03-12T07:16:19.952Z,7.27
2019-03-12T07:19:02.153Z,6.13
2019-03-12T07:22:01.341Z,6.90
2019-03-12T07:24:46.923Z,5.57
2019-03-12T07:27:34.947Z,6.70
2019-03-12T07:30:31.676Z,5.80
2019-03-12T07:33:13.382Z,5.50
2019-03-12T07:36:04.094Z,5.73
2019-03-12T07:38:53.830Z,6.53
2019-03-12T07:41:46.469Z,5.00
2019-03-12T07:44:39.109Z,4.80
2019-03-12T07:47:42.185Z,4.20
2019-03-12T07:50:42.390Z,4.23
2019-03-12T07:53:58.852Z,4.40
2019-03-12T07:56:31.860Z,4.17
2019-03-12T07:59:37.597Z,4.33
2019-03-12T08:02:19.798Z,4.77
2019-03-12T08:05:02.916Z,3.53
2019-03-12T08:07:53.926Z,4.17
2019-03-12T08:10:47.169Z,4.20
2019-03-12T08:13:41.645Z,4.30
2019-03-12T08:16:37.048Z,3.43
2019-03-12T08:19:29.276Z,3.40
2019-03-12T08:22:28.400Z,4.03
2019-03-12T08:25:10.274Z,4.23
2019-03-12T08:28:08.928Z,4.37
2019-03-12T08:30:55.730Z,4.40
2019-03-12T08:33:50.857Z,5.30
2019-03-12T08:36:50.625Z,3.67
2019-03-12T08:39:46.029Z,4.60
2019-03-12T08:42:54.939Z,2.80
2019-03-12T08:45:48.896Z,3.90
2019-03-12T08:48:32.940Z,3.23
2019-03-12T08:51:19.546Z,3.23
2019-03-12T08:54:29.168Z,3.30
2019-03-12T08:57:17.156Z,3.53
2019-03-12T09:00:10.332Z,3.70
2019-03-12T09:02:54.593Z,2.63
2019-03-12T09:06:01.044Z,3.40
2019-03-12T09:09:00.044Z,3.23
2019-03-12T09:12:02.392Z,3.00
2019-03-12T09:14:59.705Z,2.97
2019-03-12T09:17:46.026Z,3.07
2019-03-12T09:20:28.839Z,3.20
2019-03-12T09:23:17.995Z,3.10
2019-03-12T09:26:00.171Z,3.10
2019-03-12T09:28:45.564Z,2.47
2019-03-12T09:31:36.668Z,2.40
2019-03-12T09:34:34.933Z,2.93
2019-03-12T09:37:42.618Z,3.03
2019-03-12T09:40:34.467Z,2.87
2019-03-12T09:43:26.356Z,3.00
2019-03-12T09:46:33.932Z,2.40
2019-03-12T09:49:19.407Z,3.47
2019-03-12T09:52:01.506Z,2.77
2019-03-12T09:54:55.683Z,2.57
2019-03-12T09:57:54.684Z,3.27
2019-03-12T10:00:45.964Z,3.30
2019-03-12T10:03:35.435Z,3.33
2019-03-12T10:06:30.828Z,3.30
2019-03-12T10:09:30.636Z,2.73
2019-03-12T10:12:26.642Z,3.70
2019-03-12T10:15:32.071Z,3.30
2019-03-12T10:18:25.835Z,3.20
2019-03-12T10:21:19.806Z,3.47
2019-03-12T10:24:00.062Z,3.53
2019-03-12T10:26:52.004Z,4.33
2019-03-12T10:29:37.047Z,3.53
2019-03-12T10:32:24.770Z,3.97
2019-03-12T10:35:29.493Z,4.00
2019-03-12T10:39:07.889Z,4.23
2019-03-12T10:42:06.948Z,2.90
2019-03-12T10:44:53.144Z,3.30
2019-03-12T10:47:29.642Z,4.10
2019-03-12T10:50:04.747Z,4.13
2019-03-12T10:52:38.554Z,4.70
2019-03-12T10:55:18.436Z,4.70
2019-03-12T10:57:52.921Z,3.97
2019-03-12T11:00:27.657Z,3.77
2019-03-12T11:03:01.692Z,4.53
2019-03-12T11:05:45.256Z,3.20
2019-03-12T11:08:11.132Z,3.87
2019-03-12T11:10:45.044Z,3.10
2019-03-12T11:13:20.067Z,3.93
2019-03-12T11:15:56.023Z,3.07
2019-03-12T11:18:30.859Z,3.30
2019-03-12T11:21:04.489Z,3.47
2019-03-12T11:23:40.058Z,3.57
2019-03-12T11:26:13.857Z,3.07
2019-03-12T11:28:47.557Z,3.43
2019-03-12T11:31:21.286Z,3.00
2019-03-12T11:33:56.977Z,3.30
2019-03-12T11:36:31.476Z,3.47
2019-03-12T11:39:06.043Z,3.70
2019-03-12T11:41:42.038Z,3.20
2019-03-12T11:44:16.398Z,2.70
2019-03-12T11:46:50.195Z,2.80
2019-03-12T11:49:24.212Z,3.00
2019-03-12T11:51:59.334Z,3.03
2019-03-12T11:54:35.048Z,2.90
2019-03-12T11:57:08.936Z,3.87
2019-03-12T11:59:43.719Z,2.60
2019-03-12T12:02:17.397Z,6.80
2019-03-12T12:04:51.495Z,3.70
2019-03-12T12:07:25.463Z,2.50
2019-03-12T12:10:02.072Z,3.00
2019-03-12T12:12:36.397Z,2.73
2019-03-12T12:15:11.514Z,2.87
2019-03-12T12:17:49.501Z,3.00
2019-03-12T12:20:29.706Z,2.50
2019-03-12T12:22:59.802Z,3.00
2019-03-12T12:25:33.604Z,2.50
2019-03-12T12:28:07.460Z,3.30
2019-03-12T12:30:41.201Z,2.53
2019-03-12T12:33:16.153Z,3.17
2019-03-12T12:35:53.492Z,2.60
2019-03-12T12:38:27.181Z,2.07
2019-03-12T12:41:01.048Z,2.20
2019-03-12T12:43:34.751Z,1.80
2019-03-12T12:46:09.871Z,3.00
2019-03-12T12:48:43.880Z,2.50
2019-03-12T12:51:17.832Z,2.43
2019-03-12T12:53:51.808Z,2.13
2019-03-12T12:56:27.587Z,2.53
2019-03-12T12:59:01.531Z,3.00
2019-03-12T13:01:35.299Z,2.47
2019-03-12T13:04:10.135Z,3.07
2019-03-12T13:06:43.867Z,2.80
2019-03-12T13:09:18.674Z,2.40
2019-03-12T13:11:52.480Z,2.57
2019-03-12T13:14:26.516Z,2.50
2019-03-12T13:17:01.233Z,3.07
2019-03-12T13:19:34.885Z,3.07
2019-03-12T13:22:09.623Z,3.27
2019-03-12T13:24:44.506Z,3.03
2019-03-12T13:27:20.594Z,2.43
2019-03-12T13:29:54.583Z,4.37
2019-03-12T13:32:28.828Z,2.30
2019-03-12T13:35:02.624Z,3.23
2019-03-12T13:37:39.356Z,2.50
2019-03-12T13:40:17.245Z,2.60
2019-03-12T13:42:51.357Z,2.83
2019-03-12T13:45:26.849Z,2.17
2019-03-12T13:48:00.805Z,2.60
2019-03-12T13:50:34.843Z,2.47
2019-03-12T13:53:08.868Z,3.03
2019-03-12T13:55:43.688Z,2.23
2019-03-12T13:58:19.575Z,2.40
2019-03-12T14:00:53.517Z,3.10
2019-03-12T14:03:28.438Z,2.37
2019-03-12T14:06:02.093Z,2.73
2019-03-12T14:08:35.796Z,2.40
2019-03-12T14:11:09.834Z,2.80
2019-03-12T14:13:45.463Z,2.97
2019-03-12T14:16:19.309Z,2.97
2019-03-12T14:18:53.058Z,2.37
2019-03-12T14:21:26.807Z,2.53
2019-03-12T14:24:03.571Z,2.17
2019-03-12T14:26:39.229Z,2.50
2019-03-12T14:29:14.730Z,1.60
2019-03-12T14:31:48.707Z,1.80
2019-03-12T14:34:27.059Z,2.37
2019-03-12T14:37:00.998Z,1.80
2019-03-12T14:39:35.097Z,2.63
2019-03-12T14:42:09.937Z,1.97
2019-03-12T14:44:43.720Z,2.47
2019-03-12T14:47:17.681Z,2.63
2019-03-12T14:49:51.303Z,2.40
2019-03-12T14:52:30.688Z,2.60
2019-03-12T14:55:05.991Z,2.10
2019-03-12T14:57:40.967Z,1.90
2019-03-12T15:00:24.791Z,2.87
2019-03-12T15:02:59.838Z,2.20
2019-03-12T15:05:33.848Z,2.37
2019-03-12T15:08:12.305Z,1.87
2019-03-12T15:10:46.277Z,1.73
2019-03-12T15:13:23.037Z,2.10
2019-03-12T15:15:56.759Z,2.13
2019-03-12T15:18:30.505Z,2.33
2019-03-12T15:21:06.088Z,2.00
2019-03-12T15:23:40.258Z,2.50
2019-03-12T15:26:15.981Z,1.90
2019-03-12T15:28:49.760Z,2.10
2019-03-12T15:31:23.502Z,2.10
2019-03-12T15:33:57.573Z,2.20
2019-03-12T15:36:31.249Z,2.40
2019-03-12T15:39:06.835Z,1.77
2019-03-12T15:41:41.803Z,2.40
2019-03-12T15:44:15.533Z,2.17
2019-03-12T15:46:49.456Z,2.33
2019-03-12T15:49:23.319Z,1.90
2019-03-12T15:51:57.530Z,2.37
2019-03-12T15:54:31.346Z,1.93
2019-03-12T15:57:05.438Z,2.07
2019-03-12T15:59:39.322Z,2.43
2019-03-12T16:02:13.240Z,1.97
2019-03-12T16:04:50.615Z,3.03
2019-03-12T16:07:27.264Z,2.20
2019-03-12T16:10:03.714Z,2.33
2019-03-12T16:12:38.770Z,1.70
2019-03-12T16:15:12.963Z,2.23
2019-03-12T16:17:50.678Z,2.33
2019-03-12T16:20:24.706Z,2.47
2019-03-12T16:22:58.994Z,2.13
2019-03-12T16:25:35.032Z,2.40
2019-03-12T16:28:09.155Z,2.30
2019-03-12T16:30:43.420Z,3.07
2019-03-12T16:33:18.585Z,2.83
2019-03-12T16:35:52.367Z,4.33
2019-03-12T16:38:26.832Z,3.23
2019-03-12T16:41:02.198Z,4.90
2019-03-12T16:43:36.054Z,2.47
2019-03-12T16:46:09.759Z,2.20
2019-03-12T16:48:43.564Z,2.50
2019-03-12T16:51:17.367Z,2.93
2019-03-12T16:53:51.274Z,3.00
2019-03-12T16:56:26.713Z,2.57
2019-03-12T16:59:00.704Z,2.00
2019-03-12T17:01:35.935Z,2.10
2019-03-12T17:04:09.843Z,2.33
2019-03-12T17:06:46.008Z,1.93
2019-03-12T17:09:22.637Z,2.70
2019-03-12T17:11:56.338Z,1.93
2019-03-12T17:14:38.850Z,2.00
2019-03-12T17:17:10.967Z,2.50
2019-03-12T17:19:45.553Z,2.10
2019-03-12T17:22:20.631Z,2.13
2019-03-12T17:24:54.276Z,1.50
2019-03-12T17:27:29.782Z,2.60
2019-03-12T17:30:06.038Z,2.30
2019-03-12T17:32:39.829Z,3.03
2019-03-12T17:35:16.678Z,1.93
2019-03-12T17:37:50.682Z,1.97
2019-03-12T17:40:24.486Z,2.63
2019-03-12T17:42:58.358Z,2.10
2019-03-12T17:45:32.189Z,2.10
2019-03-12T17:48:07.034Z,2.07
2019-03-12T17:50:41.237Z,1.97
2019-03-12T17:53:16.678Z,1.83
2019-03-12T17:55:52.302Z,2.33
2019-03-12T17:58:27.339Z,1.33
2019-03-12T18:01:01.210Z,1.90
2019-03-12T18:03:38.538Z,1.97
2019-03-12T18:06:12.430Z,1.97
2019-03-12T18:08:47.547Z,1.90
2019-03-12T18:11:21.745Z,1.83
2019-03-12T18:13:57.350Z,1.73
2019-03-12T18:16:41.125Z,1.40
2019-03-12T18:19:09.256Z,2.30
2019-03-12T18:21:45.015Z,1.70
2019-03-12T18:24:19.099Z,1.70
2019-03-12T18:26:53.041Z,1.90
2019-03-12T18:29:29.513Z,2.03
2019-03-12T18:32:04.909Z,2.00
2019-03-12T18:34:39.657Z,1.53
2019-03-12T18:37:13.477Z,1.80
2019-03-12T18:39:48.602Z,1.93
2019-03-12T18:42:23.037Z,1.73
2019-03-12T18:44:58.423Z,1.50
2019-03-12T18:47:32.632Z,1.87
2019-03-12T18:50:07.705Z,1.80
2019-03-12T18:52:42.787Z,2.10
2019-03-12T18:55:49.037Z,1.60
2019-03-12T18:58:25.146Z,2.20
2019-03-12T19:01:02.015Z,1.57
2019-03-12T19:03:38.286Z,1.93
2019-03-12T19:06:14.597Z,2.40
2019-03-12T19:08:49.052Z,1.70
2019-03-12T19:11:23.070Z,1.20
2019-03-12T19:13:57.061Z,1.67
2019-03-12T19:16:30.837Z,1.80
2019-03-12T19:19:07.347Z,1.40
2019-03-12T19:21:50.173Z,1.77
2019-03-12T19:24:29.111Z,1.40
2019-03-12T19:27:05.008Z,1.50
2019-03-12T19:29:40.444Z,2.10
2019-03-12T19:32:27.330Z,2.23
2019-03-12T19:35:01.353Z,1.40
2019-03-12T19:37:35.475Z,2.60
2019-03-12T19:40:14.959Z,2.10
2019-03-12T19:42:49.869Z,1.80
2019-03-12T19:45:23.678Z,1.80
2019-03-12T19:47:57.996Z,1.90
2019-03-12T19:50:32.829Z,1.60
2019-03-12T19:53:07.492Z,2.00
2019-03-12T19:55:45.784Z,2.20
2019-03-12T19:58:21.110Z,2.03
2019-03-12T20:01:01.419Z,1.70
2019-03-12T20:03:36.935Z,2.00
2019-03-12T20:06:11.006Z,1.60
2019-03-12T20:08:45.952Z,1.70
2019-03-12T20:12:31.204Z,1.40
2019-03-12T20:16:16.749Z,1.40
2019-03-12T20:19:54.002Z,1.57
2019-03-12T20:23:21.946Z,1.33
2019-03-12T20:26:49.787Z,1.60
2019-03-12T20:30:22.033Z,1.03
2019-03-12T20:33:49.691Z,1.30
2019-03-12T20:37:40.778Z,2.10
2019-03-12T20:41:13.942Z,1.50
2019-03-12T20:44:57.908Z,1.57
2019-03-12T20:48:43.663Z,1.40
2019-03-12T20:52:22.331Z,1.23
2019-03-12T20:56:08.190Z,1.63
2019-03-12T20:59:36.337Z,1.37
2019-03-12T21:03:36.614Z,3.23
2019-03-12T21:07:02.566Z,6.13
2019-03-12T21:10:56.650Z,3.30
2019-03-12T21:14:21.226Z,5.03
2019-03-12T21:17:44.141Z,5.97
2019-03-12T21:21:12.397Z,2.97
2019-03-12T21:24:31.468Z,3.30
2019-03-12T21:27:52.290Z,2.20
2019-03-12T21:30:30.373Z,1.23
2019-03-12T21:33:14.747Z,1.90
2019-03-12T21:35:41.174Z,1.53
2019-03-12T21:38:20.028Z,1.10
2019-03-12T21:40:55.573Z,1.13
2019-03-12T21:43:29.992Z,1.33
2019-03-12T21:46:05.235Z,1.20
2019-03-12T21:48:39.247Z,2.40
2019-03-12T21:51:13.349Z,1.80
2019-03-12T21:53:48.573Z,2.90
2019-03-12T21:56:22.394Z,2.30
2019-03-12T21:58:56.581Z,2.10
2019-03-12T22:01:31.468Z,1.30
2019-03-12T22:04:05.201Z,1.80
2019-03-12T22:06:38.998Z,1.30
2019-03-12T22:09:13.029Z,1.43
2019-03-12T22:11:47.039Z,1.20
2019-03-12T22:14:20.806Z,1.10
2019-03-12T22:16:58.367Z,1.27
2019-03-12T22:19:33.815Z,1.57
2019-03-12T22:22:22.432Z,1.43
2019-03-12T22:24:56.191Z,1.10
2019-03-12T22:27:30.943Z,1.37
2019-03-12T22:30:05.536Z,1.53
2019-03-12T22:32:41.715Z,1.57
2019-03-12T22:35:15.788Z,1.07
2019-03-12T22:37:52.296Z,1.50
2019-03-12T22:40:26.000Z,1.40
2019-03-12T22:42:59.826Z,1.20
2019-03-12T22:45:34.872Z,1.17
2019-03-12T22:48:10.765Z,1.77
2019-03-12T22:50:46.250Z,1.37
2019-03-12T22:53:23.062Z,1.50
2019-03-12T22:55:57.015Z,0.80
2019-03-12T22:58:32.036Z,1.10
2019-03-12T23:01:06.173Z,1.50
2019-03-12T23:03:41.430Z,1.13
2019-03-12T23:06:15.134Z,1.50
2019-03-12T23:08:49.915Z,1.57
2019-03-12T23:11:25.714Z,1.57
2019-03-12T23:14:00.411Z,1.50
2019-03-12T23:16:35.892Z,1.30
2019-03-12T23:19:10.049Z,1.20
2019-03-12T23:21:45.955Z,1.67
2019-03-12T23:24:19.680Z,1.23
2019-03-12T23:26:55.205Z,1.40
2019-03-12T23:29:31.172Z,1.30
2019-03-12T23:32:05.962Z,1.40
2019-03-12T23:34:40.264Z,1.20
2019-03-12T23:37:13.926Z,1.40
2019-03-12T23:39:47.608Z,1.30
2019-03-12T23:42:21.583Z,1.43
2019-03-12T23:44:55.470Z,1.30
2019-03-12T23:47:31.952Z,0.90
2019-03-12T23:50:09.025Z,1.60
2019-03-12T23:52:42.712Z,1.20
2019-03-12T23:55:18.067Z,1.40
2019-03-12T23:57:51.694Z,2.17
